createdAt,value
2022-10-20T00:00:27.825Z,1.00
2022-10-20T00:02:57.104Z,1.00
2022-10-20T00:05:26.201Z,1.00
2022-10-20T00:07:59.600Z,1.00
2022-10-20T00:10:28.677Z,1.00
2022-10-20T00:12:58.179Z,1.00
2022-10-20T00:15:31.230Z,1.00
2022-10-20T00:18:00.767Z,1.00
2022-10-20T00:20:30.015Z,1.00
2022-10-20T00:23:00.198Z,1.00
2022-10-20T00:25:29.294Z,1.00
2022-10-20T00:27:58.265Z,1.00
2022-10-20T00:30:27.809Z,1.00
2022-10-20T00:32:57.108Z,1.00
2022-10-20T00:35:26.414Z,1.00
2022-10-20T00:37:55.996Z,1.00
2022-10-20T00:40:25.251Z,1.00
2022-10-20T00:42:55.987Z,1.00
2022-10-20T00:45:26.638Z,1.00
2022-10-20T00:48:20.480Z,1.00
2022-10-20T00:50:56.140Z,1.00
2022-10-20T00:53:30.732Z,1.00
2022-10-20T00:56:01.854Z,1.00
2022-10-20T00:58:31.172Z,1.00
2022-10-20T01:01:04.110Z,1.00
2022-10-20T01:03:43.040Z,1.00
2022-10-20T01:06:12.128Z,1.00
2022-10-20T01:08:41.372Z,1.00
2022-10-20T01:11:16.635Z,1.00
2022-10-20T01:13:48.211Z,1.00
2022-10-20T01:16:40.168Z,1.00
2022-10-20T01:19:47.808Z,1.00
2022-10-20T01:22:56.013Z,1.00
2022-10-20T01:25:52.112Z,1.00
2022-10-20T01:28:38.372Z,1.00
2022-10-20T01:31:23.934Z,1.00
2022-10-20T01:33:58.238Z,1.00
2022-10-20T01:37:08.175Z,1.00
2022-10-20T01:39:58.242Z,1.00
2022-10-20T01:42:27.856Z,1.00
2022-10-20T01:45:01.451Z,1.00
2022-10-20T01:47:31.281Z,1.00
2022-10-20T01:50:00.034Z,1.00
2022-10-20T01:52:30.149Z,1.00
2022-10-20T01:54:58.516Z,1.00
2022-10-20T01:58:01.444Z,1.00
2022-10-20T02:00:29.946Z,1.00
2022-10-20T02:03:25.983Z,1.00
2022-10-20T02:06:20.098Z,1.00
2022-10-20T02:08:58.426Z,1.00
2022-10-20T02:12:11.745Z,1.00
2022-10-20T02:14:41.112Z,1.00
2022-10-20T02:17:13.917Z,1.00
2022-10-20T02:19:45.424Z,1.00
2022-10-20T02:22:16.404Z,1.00
2022-10-20T02:24:45.463Z,1.00
2022-10-20T02:27:36.418Z,1.00
2022-10-20T02:30:10.816Z,1.00
2022-10-20T02:32:41.773Z,1.00
2022-10-20T02:35:16.449Z,1.00
2022-10-20T02:37:44.974Z,1.00
2022-10-20T02:40:13.779Z,1.00
2022-10-20T02:42:44.026Z,1.00
2022-10-20T02:45:12.571Z,1.00
2022-10-20T02:47:41.066Z,1.00
2022-10-20T02:50:10.265Z,1.00
2022-10-20T02:52:39.300Z,1.00
2022-10-20T02:55:07.948Z,1.00
2022-10-20T02:57:36.544Z,1.00
2022-10-20T03:00:07.429Z,1.00
2022-10-20T03:02:35.883Z,1.00
2022-10-20T03:05:04.532Z,1.00
2022-10-20T03:07:33.341Z,1.00
2022-10-20T03:10:01.925Z,1.00
2022-10-20T03:12:32.182Z,1.00
2022-10-20T03:15:00.832Z,1.00
2022-10-20T03:17:29.281Z,1.00
2022-10-20T03:19:57.701Z,1.00
2022-10-20T03:22:26.216Z,1.00
2022-10-20T03:24:54.594Z,1.00
2022-10-20T03:27:23.262Z,1.00
2022-10-20T03:29:51.678Z,1.00
2022-10-20T03:32:20.085Z,1.00
2022-10-20T03:34:48.429Z,1.00
2022-10-20T03:37:16.781Z,1.00
2022-10-20T03:39:45.395Z,1.00
2022-10-20T03:42:14.247Z,1.00
2022-10-20T03:44:45.777Z,1.00
2022-10-20T03:47:15.113Z,1.00
2022-10-20T03:49:43.603Z,1.00
2022-10-20T03:52:12.040Z,1.00
2022-10-20T03:54:41.702Z,1.00
2022-10-20T03:57:10.185Z,1.00
2022-10-20T03:59:38.699Z,1.00
2022-10-20T04:02:07.250Z,1.00
2022-10-20T04:04:35.691Z,1.00
2022-10-20T04:07:04.442Z,1.00
2022-10-20T04:09:32.769Z,1.00
2022-10-20T04:12:01.154Z,1.00
2022-10-20T04:14:29.593Z,1.00
2022-10-20T04:16:58.009Z,1.00
2022-10-20T04:19:26.475Z,1.00
2022-10-20T04:21:54.857Z,1.00
2022-10-20T04:24:23.246Z,1.00
2022-10-20T04:26:51.591Z,1.00
2022-10-20T04:29:20.138Z,1.00
2022-10-20T04:31:49.305Z,1.00
2022-10-20T04:34:17.834Z,1.00
2022-10-20T04:36:46.353Z,1.00
2022-10-20T04:39:14.889Z,1.00
2022-10-20T04:41:43.334Z,1.00
2022-10-20T04:44:11.889Z,1.00
2022-10-20T04:46:40.313Z,1.00
2022-10-20T04:49:08.690Z,3.00
2022-10-20T04:51:37.159Z,8.50
2022-10-20T04:56:39.073Z,16.00
2022-10-20T04:59:09.692Z,13.40
2022-10-20T05:01:41.229Z,14.20
2022-10-20T05:04:11.174Z,17.50
2022-10-20T05:06:39.947Z,15.40
2022-10-20T05:09:08.843Z,15.90
2022-10-20T05:11:38.906Z,16.70
2022-10-20T05:14:08.018Z,17.00
2022-10-20T05:16:36.890Z,21.60
2022-10-20T05:19:05.247Z,20.10
2022-10-20T05:21:34.277Z,18.70
2022-10-20T05:24:05.522Z,16.70
2022-10-20T05:26:37.801Z,19.10
2022-10-20T05:29:08.264Z,15.20
2022-10-20T05:31:44.838Z,14.30
2022-10-20T05:34:13.652Z,12.50
2022-10-20T05:36:42.083Z,10.20
2022-10-20T05:39:12.250Z,9.20
2022-10-20T05:41:40.645Z,7.40
2022-10-20T05:44:09.802Z,6.60
2022-10-20T05:46:42.012Z,7.80
2022-10-20T05:49:16.123Z,7.30
2022-10-20T05:51:46.269Z,11.80
2022-10-20T05:54:15.679Z,13.20
2022-10-20T05:56:44.424Z,12.80
2022-10-20T05:59:13.925Z,8.50
2022-10-20T06:01:51.289Z,10.00
2022-10-20T06:04:25.504Z,10.50
2022-10-20T06:06:54.753Z,11.10
2022-10-20T06:09:25.567Z,15.80
2022-10-20T06:11:54.442Z,26.50
2022-10-20T06:14:23.328Z,26.80
2022-10-20T06:16:53.222Z,27.90
2022-10-20T06:19:22.396Z,27.90
2022-10-20T06:21:51.553Z,25.20
2022-10-20T06:24:20.890Z,26.50
2022-10-20T06:26:49.301Z,25.20
2022-10-20T06:29:19.780Z,24.50
2022-10-20T06:31:50.464Z,23.60
2022-10-20T06:34:25.607Z,23.10
2022-10-20T06:36:54.476Z,23.00
2022-10-20T06:39:24.812Z,21.20
2022-10-20T06:41:55.274Z,21.60
2022-10-20T06:44:25.279Z,20.20
2022-10-20T06:46:53.669Z,22.60
2022-10-20T06:49:22.570Z,21.80
2022-10-20T06:51:51.400Z,21.50
2022-10-20T06:54:20.154Z,23.80
2022-10-20T06:56:48.651Z,26.20
2022-10-20T06:59:17.019Z,29.60
2022-10-20T07:01:45.446Z,34.50
2022-10-20T07:04:16.810Z,35.40
2022-10-20T07:06:47.008Z,36.10
2022-10-20T07:09:18.631Z,38.10
2022-10-20T07:11:47.533Z,53.40
2022-10-20T07:14:16.121Z,57.80
2022-10-20T07:16:44.607Z,60.60
2022-10-20T07:19:13.027Z,59.50
2022-10-20T07:21:45.322Z,61.50
2022-10-20T07:24:16.257Z,60.80
2022-10-20T07:26:44.691Z,63.40
2022-10-20T07:29:15.327Z,61.90
2022-10-20T07:31:49.083Z,62.50
2022-10-20T07:34:26.237Z,67.20
2022-10-20T07:36:56.670Z,68.60
2022-10-20T07:39:25.950Z,72.50
2022-10-20T07:41:54.294Z,78.60
2022-10-20T07:44:22.785Z,83.70
2022-10-20T07:46:51.235Z,84.60
2022-10-20T07:52:08.488Z,83.80
2022-10-20T07:54:38.125Z,85.10
2022-10-20T07:57:06.521Z,84.70
2022-10-20T07:59:36.422Z,85.40
2022-10-20T08:02:06.321Z,90.20
2022-10-20T08:04:35.125Z,91.40
2022-10-20T08:07:04.809Z,90.60
2022-10-20T08:09:34.340Z,90.20
2022-10-20T08:12:03.456Z,91.10
2022-10-20T08:14:37.133Z,91.70
2022-10-20T08:17:06.299Z,91.70
2022-10-20T08:19:41.332Z,90.80
2022-10-20T08:22:13.834Z,91.70
2022-10-20T08:24:42.237Z,92.30
2022-10-20T08:27:10.956Z,93.90
2022-10-20T08:29:39.646Z,93.00
2022-10-20T08:32:09.530Z,93.80
2022-10-20T08:34:39.056Z,95.20
2022-10-20T08:37:07.994Z,93.80
2022-10-20T08:39:36.384Z,94.40
2022-10-20T08:42:09.250Z,94.00
2022-10-20T08:44:40.126Z,94.90
2022-10-20T08:47:20.119Z,95.70
2022-10-20T08:49:48.762Z,96.90
2022-10-20T08:52:18.756Z,98.30
2022-10-20T08:54:49.552Z,99.90
2022-10-20T08:57:35.913Z,99.30
2022-10-20T09:00:21.545Z,99.90
2022-10-20T09:02:51.700Z,99.90
2022-10-20T09:05:26.201Z,99.90
2022-10-20T09:07:55.928Z,99.90
2022-10-20T09:11:00.175Z,99.90
2022-10-20T09:13:34.741Z,99.90
2022-10-20T09:16:08.341Z,99.90
2022-10-20T09:18:36.953Z,99.90
2022-10-20T09:21:25.511Z,99.90
2022-10-20T09:23:57.449Z,99.90
2022-10-20T09:26:54.708Z,99.90
2022-10-20T09:29:37.126Z,99.90
2022-10-20T09:32:45.020Z,99.90
2022-10-20T09:35:22.791Z,99.90
2022-10-20T09:38:04.701Z,99.90
2022-10-20T09:40:33.446Z,99.90
2022-10-20T09:43:17.429Z,99.90
2022-10-20T09:45:58.012Z,99.90
2022-10-20T09:48:31.853Z,99.90
2022-10-20T09:51:01.107Z,99.90
2022-10-20T09:53:36.046Z,99.90
2022-10-20T09:56:04.591Z,99.90
2022-10-20T09:58:35.287Z,99.90
2022-10-20T10:01:08.331Z,99.90
2022-10-20T10:03:45.706Z,99.90
2022-10-20T10:06:30.877Z,99.90
2022-10-20T10:09:01.992Z,99.90
2022-10-20T10:11:37.871Z,99.90
2022-10-20T10:14:06.788Z,99.90
2022-10-20T10:16:43.572Z,99.90
2022-10-20T10:19:19.014Z,99.90
2022-10-20T10:21:52.883Z,99.90
2022-10-20T10:24:41.057Z,99.90
2022-10-20T10:27:26.333Z,99.90
2022-10-20T10:29:56.181Z,99.90
2022-10-20T10:32:30.605Z,99.90
2022-10-20T10:35:22.149Z,99.90
2022-10-20T10:37:51.017Z,99.90
2022-10-20T10:40:30.054Z,99.90
2022-10-20T10:43:04.518Z,99.90
2022-10-20T10:45:57.616Z,99.90
2022-10-20T10:48:50.670Z,99.90
2022-10-20T10:51:37.554Z,99.90
2022-10-20T10:54:15.069Z,99.90
2022-10-20T10:56:52.744Z,99.90
2022-10-20T10:59:44.040Z,99.90
2022-10-20T11:02:38.682Z,99.90
2022-10-20T11:05:37.459Z,99.90
2022-10-20T11:08:16.099Z,99.90
2022-10-20T11:10:44.476Z,99.90
2022-10-20T11:13:27.114Z,99.90
2022-10-20T11:16:21.370Z,99.90
2022-10-20T11:19:03.323Z,99.90
2022-10-20T11:21:46.263Z,99.90
2022-10-20T11:24:32.977Z,99.90
2022-10-20T11:27:26.688Z,99.90
2022-10-20T11:30:09.134Z,99.90
2022-10-20T11:33:05.333Z,99.90
2022-10-20T11:35:40.987Z,99.90
2022-10-20T11:38:16.908Z,99.90
2022-10-20T11:41:25.801Z,99.90
2022-10-20T11:44:07.301Z,99.90
2022-10-20T11:46:38.492Z,99.90
2022-10-20T11:49:08.454Z,99.90
2022-10-20T11:51:53.149Z,99.90
2022-10-20T11:54:39.754Z,99.90
2022-10-20T11:57:32.545Z,99.90
2022-10-20T12:00:27.178Z,99.90
2022-10-20T12:02:59.440Z,99.90
2022-10-20T12:05:49.561Z,99.90
2022-10-20T12:08:42.651Z,99.90
2022-10-20T12:11:14.234Z,99.90
2022-10-20T12:14:16.230Z,99.90
2022-10-20T12:16:56.548Z,99.90
2022-10-20T12:19:35.716Z,99.90
2022-10-20T12:22:14.995Z,99.90
2022-10-20T12:25:04.473Z,99.90
2022-10-20T12:27:33.678Z,99.90
2022-10-20T12:30:39.839Z,99.90
2022-10-20T12:33:21.360Z,99.90
2022-10-20T12:36:13.565Z,99.90
2022-10-20T12:38:45.751Z,99.90
2022-10-20T12:41:48.554Z,99.90
2022-10-20T12:44:19.621Z,99.90
2022-10-20T12:47:40.346Z,99.90
2022-10-20T12:50:24.112Z,99.90
2022-10-20T12:52:52.606Z,99.90
2022-10-20T12:55:39.585Z,99.90
2022-10-20T12:58:19.090Z,99.90
2022-10-20T13:00:50.885Z,99.90
2022-10-20T13:03:41.730Z,99.90
2022-10-20T13:06:25.098Z,99.90
2022-10-20T13:09:05.545Z,99.90
2022-10-20T13:11:38.999Z,99.90
2022-10-20T13:14:35.512Z,99.90
2022-10-20T13:17:13.042Z,99.90
2022-10-20T13:20:42.922Z,99.90
2022-10-20T13:23:15.410Z,99.90
2022-10-20T13:26:00.671Z,99.90
2022-10-20T13:28:32.601Z,99.90
2022-10-20T13:31:25.872Z,99.90
2022-10-20T13:34:06.743Z,99.90
2022-10-20T13:36:56.706Z,99.90
2022-10-20T13:39:37.469Z,99.90
2022-10-20T13:42:17.862Z,99.90
2022-10-20T13:45:27.866Z,99.90
2022-10-20T13:48:25.082Z,99.90
2022-10-20T13:51:14.059Z,99.90
2022-10-20T13:53:48.051Z,99.90
2022-10-20T13:56:19.437Z,99.90
2022-10-20T13:59:05.519Z,99.90
2022-10-20T14:01:38.245Z,99.90
2022-10-20T14:04:24.783Z,99.90
2022-10-20T14:06:54.093Z,99.90
2022-10-20T14:09:26.823Z,99.90
2022-10-20T14:12:27.329Z,99.90
2022-10-20T14:15:01.720Z,99.90
2022-10-20T14:17:30.774Z,99.90
2022-10-20T14:20:22.612Z,99.90
2022-10-20T14:22:52.142Z,99.90
2022-10-20T14:25:21.305Z,99.90
2022-10-20T14:27:52.198Z,99.90
2022-10-20T14:30:21.051Z,99.90
2022-10-20T14:32:51.481Z,99.90
2022-10-20T14:35:46.135Z,99.90
2022-10-20T14:38:24.072Z,99.90
2022-10-20T14:40:55.513Z,99.90
2022-10-20T14:43:46.397Z,99.90
2022-10-20T14:46:26.962Z,99.90
2022-10-20T14:48:55.370Z,99.90
2022-10-20T14:51:38.289Z,99.90
2022-10-20T14:54:21.965Z,99.90
2022-10-20T14:57:03.910Z,99.90
2022-10-20T14:59:35.260Z,99.90
2022-10-20T15:02:08.590Z,99.90
2022-10-20T15:04:39.846Z,99.90
2022-10-20T15:07:22.284Z,99.90
2022-10-20T15:09:54.466Z,99.90
2022-10-20T15:12:38.788Z,99.90
2022-10-20T15:15:13.229Z,99.90
2022-10-20T15:17:48.319Z,99.90
2022-10-20T15:20:34.829Z,99.90
2022-10-20T15:23:16.665Z,99.90
2022-10-20T15:26:11.222Z,99.90
2022-10-20T15:28:40.578Z,99.90
2022-10-20T15:31:17.682Z,99.90
2022-10-20T15:33:46.277Z,99.90
2022-10-20T15:36:21.608Z,99.90
2022-10-20T15:38:50.874Z,99.90
2022-10-20T15:41:25.952Z,99.90
2022-10-20T15:43:54.437Z,99.90
2022-10-20T15:46:22.875Z,99.90
2022-10-20T15:48:51.375Z,99.90
2022-10-20T15:51:23.249Z,99.90
2022-10-20T15:53:52.146Z,99.90
2022-10-20T15:56:21.527Z,99.90
2022-10-20T15:58:53.401Z,99.90
2022-10-20T16:01:22.710Z,99.90
2022-10-20T16:03:51.699Z,99.90
2022-10-20T16:06:20.482Z,99.90
2022-10-20T16:08:50.531Z,99.90
2022-10-20T16:11:21.502Z,99.90
2022-10-20T16:13:50.267Z,99.90
2022-10-20T16:16:20.302Z,99.90
2022-10-20T16:18:48.749Z,99.90
2022-10-20T16:21:17.146Z,99.90
2022-10-20T16:23:45.483Z,99.90
2022-10-20T16:26:15.141Z,99.90
2022-10-20T16:28:43.958Z,99.90
2022-10-20T16:31:14.942Z,99.90
2022-10-20T16:33:44.065Z,99.90
2022-10-20T16:36:15.666Z,99.90
2022-10-20T16:38:44.173Z,99.90
2022-10-20T16:41:15.576Z,99.90
2022-10-20T16:43:46.658Z,99.60
2022-10-20T16:46:16.683Z,97.90
2022-10-20T16:48:47.974Z,92.00
2022-10-20T16:51:17.190Z,93.80
2022-10-20T16:53:45.562Z,90.00
2022-10-20T16:56:16.921Z,66.80
2022-10-20T16:58:48.562Z,49.80
2022-10-20T17:01:19.722Z,35.60
2022-10-20T17:03:50.608Z,36.80
2022-10-20T17:06:21.781Z,19.10
2022-10-20T17:08:50.772Z,3.80
2022-10-20T17:11:25.741Z,1.00
2022-10-20T17:13:54.744Z,1.00
2022-10-20T17:16:29.114Z,1.00
2022-10-20T17:18:58.946Z,1.00
2022-10-20T17:21:28.238Z,1.00
2022-10-20T17:23:57.275Z,1.00
2022-10-20T17:26:27.559Z,1.00
2022-10-20T17:28:58.146Z,1.00
2022-10-20T17:31:26.740Z,1.00
2022-10-20T17:33:56.466Z,1.00
2022-10-20T17:36:29.395Z,1.00
2022-10-20T17:39:01.868Z,1.00
2022-10-20T17:41:30.832Z,1.00
2022-10-20T17:44:03.098Z,1.00
2022-10-20T17:46:31.823Z,1.00
2022-10-20T17:49:02.393Z,1.00
2022-10-20T17:51:34.408Z,1.00
2022-10-20T17:54:04.363Z,1.00
2022-10-20T17:56:36.481Z,1.00
2022-10-20T17:59:06.232Z,1.00
2022-10-20T18:01:40.121Z,1.00
2022-10-20T18:04:09.625Z,1.00
2022-10-20T18:06:39.253Z,1.00
2022-10-20T18:09:13.875Z,1.00
2022-10-20T18:11:45.649Z,1.00
2022-10-20T18:14:14.096Z,1.00
2022-10-20T18:16:43.124Z,1.00
2022-10-20T18:19:16.585Z,1.00
2022-10-20T18:21:45.395Z,1.00
2022-10-20T18:24:15.370Z,1.00
2022-10-20T18:26:44.612Z,1.00
2022-10-20T18:29:14.471Z,1.00
2022-10-20T18:31:45.370Z,1.00
2022-10-20T18:34:16.408Z,1.00
2022-10-20T18:36:45.875Z,1.00
2022-10-20T18:39:15.475Z,1.00
2022-10-20T18:41:45.167Z,1.00
2022-10-20T18:44:18.807Z,1.00
2022-10-20T18:46:48.457Z,1.00
2022-10-20T18:49:21.354Z,1.00
2022-10-20T18:51:50.685Z,1.00
2022-10-20T18:54:20.132Z,1.00
2022-10-20T18:56:48.601Z,1.00
2022-10-20T18:59:18.012Z,1.00
2022-10-20T19:01:49.085Z,1.00
2022-10-20T19:04:17.735Z,1.00
2022-10-20T19:06:48.855Z,1.00
2022-10-20T19:09:22.550Z,1.00
2022-10-20T19:11:51.735Z,1.00
2022-10-20T19:14:20.166Z,1.00
2022-10-20T19:16:49.577Z,1.00
2022-10-20T19:19:18.545Z,1.00
2022-10-20T19:21:47.102Z,1.00
2022-10-20T19:24:26.216Z,1.00
2022-10-20T19:29:49.027Z,1.00
2022-10-20T19:32:17.418Z,1.00
2022-10-20T19:34:46.138Z,1.00
2022-10-20T19:37:14.703Z,1.00
2022-10-20T19:39:43.872Z,1.00
2022-10-20T19:42:12.854Z,1.00
2022-10-20T19:44:41.596Z,1.00
2022-10-20T19:47:10.025Z,1.00
2022-10-20T19:49:38.564Z,1.00
2022-10-20T19:52:07.973Z,1.00
2022-10-20T19:54:36.396Z,1.00
2022-10-20T19:57:05.058Z,1.00
2022-10-20T19:59:33.728Z,1.00
2022-10-20T20:02:02.140Z,1.00
2022-10-20T20:04:30.558Z,1.00
2022-10-20T20:07:02.185Z,1.00
2022-10-20T20:09:31.719Z,1.00
2022-10-20T20:12:00.151Z,1.00
2022-10-20T20:14:28.794Z,1.00
2022-10-20T20:16:57.339Z,1.00
2022-10-20T20:19:25.781Z,1.00
2022-10-20T20:21:54.220Z,1.00
2022-10-20T20:24:22.565Z,1.00
2022-10-20T20:26:51.033Z,1.00
2022-10-20T20:29:19.478Z,1.00
2022-10-20T20:31:48.929Z,1.00
2022-10-20T20:34:17.442Z,1.00
2022-10-20T20:36:45.929Z,1.00
2022-10-20T20:39:14.282Z,1.00
2022-10-20T20:41:42.693Z,1.00
2022-10-20T20:44:11.240Z,1.00
2022-10-20T20:46:39.850Z,1.00
2022-10-20T20:49:08.301Z,1.00
2022-10-20T20:51:36.786Z,1.00
2022-10-20T20:54:05.346Z,1.00
2022-10-20T20:56:34.003Z,1.00
2022-10-20T20:59:02.710Z,1.00
2022-10-20T21:01:32.673Z,1.00
2022-10-20T21:04:04.098Z,1.00
2022-10-20T21:06:49.476Z,1.00
2022-10-20T21:09:21.999Z,1.00
2022-10-20T21:11:50.451Z,1.00
2022-10-20T21:14:18.988Z,1.00
2022-10-20T21:16:47.448Z,1.00
2022-10-20T21:19:15.978Z,1.00
2022-10-20T21:21:51.034Z,1.00
2022-10-20T21:24:20.024Z,1.00
2022-10-20T21:26:49.552Z,1.00
2022-10-20T21:29:18.619Z,1.00
2022-10-20T21:31:46.991Z,1.00
2022-10-20T21:34:15.434Z,1.00
2022-10-20T21:36:44.128Z,1.00
2022-10-20T21:39:18.205Z,1.00
2022-10-20T21:41:47.481Z,1.00
2022-10-20T21:44:16.153Z,1.00
2022-10-20T21:46:50.104Z,1.00
2022-10-20T21:49:21.476Z,1.00
2022-10-20T21:51:53.169Z,1.00
2022-10-20T21:54:23.993Z,1.00
2022-10-20T21:56:53.211Z,1.00
2022-10-20T21:59:24.956Z,1.00
2022-10-20T22:01:55.802Z,1.00
2022-10-20T22:04:27.519Z,1.00
2022-10-20T22:06:56.876Z,1.00
2022-10-20T22:09:25.432Z,1.00
2022-10-20T22:11:56.787Z,1.00
2022-10-20T22:14:25.237Z,1.00
2022-10-20T22:16:53.695Z,1.00
2022-10-20T22:19:24.570Z,1.00
2022-10-20T22:21:54.772Z,1.00
2022-10-20T22:24:23.881Z,1.00
2022-10-20T22:26:53.977Z,1.00
2022-10-20T22:29:23.661Z,1.00
2022-10-20T22:31:52.478Z,1.00
2022-10-20T22:34:21.300Z,1.00
2022-10-20T22:36:49.634Z,1.00
2022-10-20T22:39:18.007Z,1.00
2022-10-20T22:41:46.494Z,1.00
2022-10-20T22:44:14.877Z,1.00
2022-10-20T22:46:43.224Z,1.00
2022-10-20T22:49:14.024Z,1.00
2022-10-20T22:51:42.378Z,1.00
2022-10-20T22:54:11.075Z,1.00
2022-10-20T22:56:39.566Z,1.00
2022-10-20T22:59:08.007Z,1.00
2022-10-20T23:01:36.346Z,1.00
2022-10-20T23:04:04.788Z,1.00
2022-10-20T23:06:33.174Z,1.00
2022-10-20T23:09:01.580Z,1.00
2022-10-20T23:11:30.982Z,1.00
2022-10-20T23:13:59.385Z,1.00
2022-10-20T23:16:27.779Z,1.00
2022-10-20T23:18:56.553Z,1.00
2022-10-20T23:21:24.992Z,1.00
2022-10-20T23:23:53.484Z,1.00
2022-10-20T23:26:22.050Z,1.00
2022-10-20T23:28:50.506Z,1.00
2022-10-20T23:31:23.383Z,1.00
2022-10-20T23:33:55.823Z,1.00
2022-10-20T23:36:24.547Z,1.00
2022-10-20T23:38:53.065Z,1.00
2022-10-20T23:41:21.631Z,1.00
2022-10-20T23:43:50.101Z,1.00
2022-10-20T23:46:18.499Z,1.00
2022-10-20T23:48:46.866Z,1.00
2022-10-20T23:51:15.276Z,1.00
2022-10-20T23:53:43.634Z,1.00
2022-10-20T23:56:12.040Z,1.00
2022-10-20T23:58:40.518Z,1.00
